sensor_id;sensor_type;location;lat;lon;timestamp;P1;durP1;ratioP1;P2;durP2;ratioP2
12367;SDS011;6248;49.812;6.620;2023-08-06T00:01:12;2.85;;;1.95;;
12367;SDS011;6248;49.812;6.620;2023-08-06T00:03:39;2.05;;;1.85;;
12367;SDS011;6248;49.812;6.620;2023-08-06T00:06:06;3.47;;;2.03;;
12367;SDS011;6248;49.812;6.620;2023-08-06T00:08:33;2.17;;;1.98;;
12367;SDS011;6248;49.812;6.620;2023-08-06T00:11:01;4.35;;;2.00;;
12367;SDS011;6248;49.812;6.620;2023-08-06T00:13:28;3.25;;;2.10;;
12367;SDS011;6248;49.812;6.620;2023-08-06T00:15:56;3.15;;;2.40;;
12367;SDS011;6248;49.812;6.620;2023-08-06T00:18:34;3.10;;;2.70;;
12367;SDS011;6248;49.812;6.620;2023-08-06T00:21:01;5.70;;;2.33;;
12367;SDS011;6248;49.812;6.620;2023-08-06T00:23:28;3.45;;;2.13;;
12367;SDS011;6248;49.812;6.620;2023-08-06T00:25:56;3.83;;;2.30;;
12367;SDS011;6248;49.812;6.620;2023-08-06T00:28:23;3.60;;;2.28;;
12367;SDS011;6248;49.812;6.620;2023-08-06T00:30:52;3.92;;;2.50;;
12367;SDS011;6248;49.812;6.620;2023-08-06T00:33:20;3.58;;;2.20;;
12367;SDS011;6248;49.812;6.620;2023-08-06T00:35:47;4.72;;;2.45;;
12367;SDS011;6248;49.812;6.620;2023-08-06T00:38:15;2.83;;;2.55;;
12367;SDS011;6248;49.812;6.620;2023-08-06T00:40:42;2.33;;;2.05;;
12367;SDS011;6248;49.812;6.620;2023-08-06T00:43:09;3.13;;;2.20;;
12367;SDS011;6248;49.812;6.620;2023-08-06T00:45:36;3.33;;;1.95;;
12367;SDS011;6248;49.812;6.620;2023-08-06T00:48:04;5.70;;;2.30;;
12367;SDS011;6248;49.812;6.620;2023-08-06T00:50:33;4.50;;;2.70;;
12367;SDS011;6248;49.812;6.620;2023-08-06T00:53:00;5.85;;;2.40;;
12367;SDS011;6248;49.812;6.620;2023-08-06T00:55:28;4.18;;;2.60;;
12367;SDS011;6248;49.812;6.620;2023-08-06T00:57:55;4.38;;;2.60;;
12367;SDS011;6248;49.812;6.620;2023-08-06T01:00:23;2.47;;;2.05;;
12367;SDS011;6248;49.812;6.620;2023-08-06T01:02:50;4.45;;;2.15;;
12367;SDS011;6248;49.812;6.620;2023-08-06T01:05:18;3.65;;;1.90;;
12367;SDS011;6248;49.812;6.620;2023-08-06T01:07:51;2.00;;;1.55;;
12367;SDS011;6248;49.812;6.620;2023-08-06T01:10:21;3.17;;;1.65;;
12367;SDS011;6248;49.812;6.620;2023-08-06T01:12:51;3.97;;;1.80;;
12367;SDS011;6248;49.812;6.620;2023-08-06T01:15:22;3.70;;;1.88;;
12367;SDS011;6248;49.812;6.620;2023-08-06T01:17:50;6.13;;;2.10;;
12367;SDS011;6248;49.812;6.620;2023-08-06T01:20:17;4.93;;;1.85;;
12367;SDS011;6248;49.812;6.620;2023-08-06T01:22:46;2.92;;;1.60;;
12367;SDS011;6248;49.812;6.620;2023-08-06T01:25:13;2.80;;;1.73;;
12367;SDS011;6248;49.812;6.620;2023-08-06T01:27:44;2.58;;;1.55;;
12367;SDS011;6248;49.812;6.620;2023-08-06T01:30:12;4.60;;;1.85;;
12367;SDS011;6248;49.812;6.620;2023-08-06T01:32:41;5.72;;;1.92;;
12367;SDS011;6248;49.812;6.620;2023-08-06T01:35:09;2.63;;;1.23;;
12367;SDS011;6248;49.812;6.620;2023-08-06T01:37:37;3.67;;;1.40;;
12367;SDS011;6248;49.812;6.620;2023-08-06T01:40:07;3.75;;;1.98;;
12367;SDS011;6248;49.812;6.620;2023-08-06T01:42:36;2.30;;;1.50;;
12367;SDS011;6248;49.812;6.620;2023-08-06T01:45:04;2.72;;;1.27;;
12367;SDS011;6248;49.812;6.620;2023-08-06T01:47:31;1.48;;;1.10;;
12367;SDS011;6248;49.812;6.620;2023-08-06T01:49:58;1.95;;;1.10;;
12367;SDS011;6248;49.812;6.620;2023-08-06T01:52:26;2.35;;;1.30;;
12367;SDS011;6248;49.812;6.620;2023-08-06T01:54:53;1.30;;;0.90;;
12367;SDS011;6248;49.812;6.620;2023-08-06T01:57:22;1.50;;;0.90;;
12367;SDS011;6248;49.812;6.620;2023-08-06T01:59:49;1.83;;;0.93;;
12367;SDS011;6248;49.812;6.620;2023-08-06T02:02:16;2.88;;;0.98;;
12367;SDS011;6248;49.812;6.620;2023-08-06T02:04:43;1.25;;;1.02;;
12367;SDS011;6248;49.812;6.620;2023-08-06T02:07:11;1.48;;;0.77;;
12367;SDS011;6248;49.812;6.620;2023-08-06T02:09:38;1.20;;;0.80;;
12367;SDS011;6248;49.812;6.620;2023-08-06T02:12:05;2.63;;;0.70;;
12367;SDS011;6248;49.812;6.620;2023-08-06T02:14:34;1.10;;;0.85;;
12367;SDS011;6248;49.812;6.620;2023-08-06T02:17:01;2.67;;;0.80;;
12367;SDS011;6248;49.812;6.620;2023-08-06T02:19:28;1.02;;;0.70;;
12367;SDS011;6248;49.812;6.620;2023-08-06T02:21:56;2.13;;;0.90;;
12367;SDS011;6248;49.812;6.620;2023-08-06T02:24:23;3.55;;;0.77;;
12367;SDS011;6248;49.812;6.620;2023-08-06T02:26:50;1.23;;;0.77;;
12367;SDS011;6248;49.812;6.620;2023-08-06T02:29:20;1.33;;;0.70;;
12367;SDS011;6248;49.812;6.620;2023-08-06T02:31:49;0.98;;;0.88;;
12367;SDS011;6248;49.812;6.620;2023-08-06T02:34:16;1.95;;;0.70;;
12367;SDS011;6248;49.812;6.620;2023-08-06T02:36:43;0.70;;;0.70;;
12367;SDS011;6248;49.812;6.620;2023-08-06T02:39:10;1.85;;;0.70;;
12367;SDS011;6248;49.812;6.620;2023-08-06T02:41:37;0.70;;;0.70;;
12367;SDS011;6248;49.812;6.620;2023-08-06T02:44:04;1.15;;;0.70;;
12367;SDS011;6248;49.812;6.620;2023-08-06T02:46:32;2.30;;;0.90;;
12367;SDS011;6248;49.812;6.620;2023-08-06T02:49:00;1.92;;;0.90;;
12367;SDS011;6248;49.812;6.620;2023-08-06T02:51:27;0.93;;;0.77;;
12367;SDS011;6248;49.812;6.620;2023-08-06T02:53:54;1.67;;;0.85;;
12367;SDS011;6248;49.812;6.620;2023-08-06T02:56:21;0.60;;;0.60;;
12367;SDS011;6248;49.812;6.620;2023-08-06T02:58:49;0.93;;;0.70;;
12367;SDS011;6248;49.812;6.620;2023-08-06T03:01:16;0.63;;;0.60;;
12367;SDS011;6248;49.812;6.620;2023-08-06T03:03:43;1.17;;;0.70;;
12367;SDS011;6248;49.812;6.620;2023-08-06T03:06:11;0.88;;;0.70;;
12367;SDS011;6248;49.812;6.620;2023-08-06T03:08:40;1.63;;;0.70;;
12367;SDS011;6248;49.812;6.620;2023-08-06T03:11:07;0.77;;;0.77;;
12367;SDS011;6248;49.812;6.620;2023-08-06T03:13:34;1.88;;;0.90;;
12367;SDS011;6248;49.812;6.620;2023-08-06T03:16:01;1.77;;;0.80;;
12367;SDS011;6248;49.812;6.620;2023-08-06T03:18:28;0.82;;;0.52;;
12367;SDS011;6248;49.812;6.620;2023-08-06T03:20:55;1.52;;;0.82;;
12367;SDS011;6248;49.812;6.620;2023-08-06T03:23:24;2.05;;;0.70;;
12367;SDS011;6248;49.812;6.620;2023-08-06T03:25:51;2.15;;;0.60;;
12367;SDS011;6248;49.812;6.620;2023-08-06T03:28:18;0.77;;;0.70;;
12367;SDS011;6248;49.812;6.620;2023-08-06T03:30:47;1.33;;;0.70;;
12367;SDS011;6248;49.812;6.620;2023-08-06T03:33:14;1.73;;;0.80;;
12367;SDS011;6248;49.812;6.620;2023-08-06T03:35:41;3.90;;;1.10;;
12367;SDS011;6248;49.812;6.620;2023-08-06T03:38:08;1.30;;;1.10;;
12367;SDS011;6248;49.812;6.620;2023-08-06T03:40:37;1.50;;;1.00;;
12367;SDS011;6248;49.812;6.620;2023-08-06T03:43:04;2.40;;;1.00;;
12367;SDS011;6248;49.812;6.620;2023-08-06T03:45:31;1.17;;;0.95;;
12367;SDS011;6248;49.812;6.620;2023-08-06T03:47:58;2.55;;;0.88;;
12367;SDS011;6248;49.812;6.620;2023-08-06T03:50:25;3.35;;;1.10;;
12367;SDS011;6248;49.812;6.620;2023-08-06T03:52:52;1.42;;;1.08;;
12367;SDS011;6248;49.812;6.620;2023-08-06T03:55:20;1.70;;;1.00;;
12367;SDS011;6248;49.812;6.620;2023-08-06T03:57:48;1.33;;;1.17;;
12367;SDS011;6248;49.812;6.620;2023-08-06T04:00:15;2.90;;;1.20;;
12367;SDS011;6248;49.812;6.620;2023-08-06T04:02:42;2.75;;;1.23;;
12367;SDS011;6248;49.812;6.620;2023-08-06T04:05:10;1.98;;;1.40;;
12367;SDS011;6248;49.812;6.620;2023-08-06T04:07:37;2.33;;;1.60;;
12367;SDS011;6248;49.812;6.620;2023-08-06T04:10:05;1.83;;;1.48;;
12367;SDS011;6248;49.812;6.620;2023-08-06T04:12:32;1.60;;;1.50;;
12367;SDS011;6248;49.812;6.620;2023-08-06T04:15:03;3.45;;;1.60;;
12367;SDS011;6248;49.812;6.620;2023-08-06T04:17:30;3.45;;;1.90;;
12367;SDS011;6248;49.812;6.620;2023-08-06T04:19:57;2.42;;;1.40;;
12367;SDS011;6248;49.812;6.620;2023-08-06T04:22:25;3.35;;;1.70;;
12367;SDS011;6248;49.812;6.620;2023-08-06T04:24:52;3.20;;;1.95;;
12367;SDS011;6248;49.812;6.620;2023-08-06T04:27:19;2.38;;;1.70;;
12367;SDS011;6248;49.812;6.620;2023-08-06T04:29:46;4.28;;;2.00;;
12367;SDS011;6248;49.812;6.620;2023-08-06T04:32:15;1.90;;;1.75;;
12367;SDS011;6248;49.812;6.620;2023-08-06T04:34:44;2.03;;;1.70;;
12367;SDS011;6248;49.812;6.620;2023-08-06T04:37:11;2.78;;;1.75;;
12367;SDS011;6248;49.812;6.620;2023-08-06T04:39:39;2.53;;;1.63;;
12367;SDS011;6248;49.812;6.620;2023-08-06T04:42:06;2.55;;;1.83;;
12367;SDS011;6248;49.812;6.620;2023-08-06T04:44:33;3.60;;;1.83;;
12367;SDS011;6248;49.812;6.620;2023-08-06T04:47:00;3.20;;;1.77;;
12367;SDS011;6248;49.812;6.620;2023-08-06T04:49:29;2.00;;;1.50;;
12367;SDS011;6248;49.812;6.620;2023-08-06T04:51:56;2.67;;;1.63;;
12367;SDS011;6248;49.812;6.620;2023-08-06T04:54:23;1.48;;;1.38;;
12367;SDS011;6248;49.812;6.620;2023-08-06T04:56:50;1.70;;;1.40;;
12367;SDS011;6248;49.812;6.620;2023-08-06T04:59:17;1.60;;;1.50;;
12367;SDS011;6248;49.812;6.620;2023-08-06T05:01:44;3.13;;;1.70;;
12367;SDS011;6248;49.812;6.620;2023-08-06T05:04:11;1.40;;;1.23;;
12367;SDS011;6248;49.812;6.620;2023-08-06T05:06:40;2.05;;;1.55;;
12367;SDS011;6248;49.812;6.620;2023-08-06T05:09:07;1.80;;;1.30;;
12367;SDS011;6248;49.812;6.620;2023-08-06T05:11:34;1.95;;;1.10;;
12367;SDS011;6248;49.812;6.620;2023-08-06T05:14:01;1.88;;;1.20;;
12367;SDS011;6248;49.812;6.620;2023-08-06T05:16:29;2.30;;;1.27;;
12367;SDS011;6248;49.812;6.620;2023-08-06T05:18:56;1.73;;;1.40;;
12367;SDS011;6248;49.812;6.620;2023-08-06T05:21:23;2.58;;;1.30;;
12367;SDS011;6248;49.812;6.620;2023-08-06T05:23:51;1.40;;;1.20;;
12367;SDS011;6248;49.812;6.620;2023-08-06T05:26:18;1.27;;;1.10;;
12367;SDS011;6248;49.812;6.620;2023-08-06T05:28:46;3.13;;;1.45;;
12367;SDS011;6248;49.812;6.620;2023-08-06T05:31:13;1.70;;;1.27;;
12367;SDS011;6248;49.812;6.620;2023-08-06T05:33:40;3.13;;;1.10;;
12367;SDS011;6248;49.812;6.620;2023-08-06T05:36:07;1.83;;;1.10;;
12367;SDS011;6248;49.812;6.620;2023-08-06T05:38:34;1.15;;;1.15;;
12367;SDS011;6248;49.812;6.620;2023-08-06T05:41:03;1.73;;;1.00;;
12367;SDS011;6248;49.812;6.620;2023-08-06T05:43:30;1.67;;;1.00;;
12367;SDS011;6248;49.812;6.620;2023-08-06T05:45:57;1.85;;;1.00;;
12367;SDS011;6248;49.812;6.620;2023-08-06T05:48:24;1.67;;;1.20;;
12367;SDS011;6248;49.812;6.620;2023-08-06T05:50:53;1.27;;;1.13;;
12367;SDS011;6248;49.812;6.620;2023-08-06T05:53:20;2.45;;;1.10;;
12367;SDS011;6248;49.812;6.620;2023-08-06T05:55:47;1.30;;;1.20;;
12367;SDS011;6248;49.812;6.620;2023-08-06T05:58:16;1.33;;;1.05;;
12367;SDS011;6248;49.812;6.620;2023-08-06T06:00:45;3.13;;;1.30;;
12367;SDS011;6248;49.812;6.620;2023-08-06T06:03:12;2.28;;;1.20;;
12367;SDS011;6248;49.812;6.620;2023-08-06T06:05:39;2.15;;;1.05;;
12367;SDS011;6248;49.812;6.620;2023-08-06T06:08:06;2.03;;;1.17;;
12367;SDS011;6248;49.812;6.620;2023-08-06T06:10:33;1.20;;;1.10;;
12367;SDS011;6248;49.812;6.620;2023-08-06T06:13:01;0.95;;;0.90;;
12367;SDS011;6248;49.812;6.620;2023-08-06T06:15:30;2.47;;;1.17;;
12367;SDS011;6248;49.812;6.620;2023-08-06T06:17:57;1.25;;;1.15;;
12367;SDS011;6248;49.812;6.620;2023-08-06T06:20:24;0.98;;;0.93;;
12367;SDS011;6248;49.812;6.620;2023-08-06T06:22:51;1.45;;;1.10;;
12367;SDS011;6248;49.812;6.620;2023-08-06T06:25:19;1.48;;;0.90;;
12367;SDS011;6248;49.812;6.620;2023-08-06T06:27:46;2.42;;;0.80;;
12367;SDS011;6248;49.812;6.620;2023-08-06T06:30:13;0.70;;;0.70;;
12367;SDS011;6248;49.812;6.620;2023-08-06T06:32:41;2.00;;;0.80;;
12367;SDS011;6248;49.812;6.620;2023-08-06T06:35:09;2.53;;;0.70;;
12367;SDS011;6248;49.812;6.620;2023-08-06T06:37:36;1.20;;;0.90;;
12367;SDS011;6248;49.812;6.620;2023-08-06T06:40:04;2.10;;;0.70;;
12367;SDS011;6248;49.812;6.620;2023-08-06T06:42:31;0.80;;;0.55;;
12367;SDS011;6248;49.812;6.620;2023-08-06T06:44:59;2.65;;;0.60;;
12367;SDS011;6248;49.812;6.620;2023-08-06T06:47:26;0.35;;;0.35;;
12367;SDS011;6248;49.812;6.620;2023-08-06T06:49:54;1.75;;;0.55;;
12367;SDS011;6248;49.812;6.620;2023-08-06T06:52:21;0.70;;;0.70;;
12367;SDS011;6248;49.812;6.620;2023-08-06T06:54:49;0.50;;;0.50;;
12367;SDS011;6248;49.812;6.620;2023-08-06T06:57:16;0.40;;;0.40;;
12367;SDS011;6248;49.812;6.620;2023-08-06T06:59:43;0.63;;;0.63;;
12367;SDS011;6248;49.812;6.620;2023-08-06T07:02:10;1.10;;;0.40;;
12367;SDS011;6248;49.812;6.620;2023-08-06T07:04:37;0.77;;;0.30;;
12367;SDS011;6248;49.812;6.620;2023-08-06T07:07:06;0.50;;;0.50;;
12367;SDS011;6248;49.812;6.620;2023-08-06T07:09:33;0.40;;;0.40;;
12367;SDS011;6248;49.812;6.620;2023-08-06T07:12:00;0.70;;;0.70;;
12367;SDS011;6248;49.812;6.620;2023-08-06T07:14:28;0.63;;;0.63;;
12367;SDS011;6248;49.812;6.620;2023-08-06T07:16:55;0.80;;;0.80;;
12367;SDS011;6248;49.812;6.620;2023-08-06T07:19:23;0.60;;;0.60;;
12367;SDS011;6248;49.812;6.620;2023-08-06T07:21:50;1.83;;;0.80;;
12367;SDS011;6248;49.812;6.620;2023-08-06T07:24:18;3.72;;;0.70;;
12367;SDS011;6248;49.812;6.620;2023-08-06T07:26:46;0.60;;;0.60;;
12367;SDS011;6248;49.812;6.620;2023-08-06T07:29:13;1.60;;;0.70;;
12367;SDS011;6248;49.812;6.620;2023-08-06T07:31:44;0.52;;;0.52;;
12367;SDS011;6248;49.812;6.620;2023-08-06T07:34:11;1.35;;;0.90;;
12367;SDS011;6248;49.812;6.620;2023-08-06T07:36:39;0.40;;;0.40;;
12367;SDS011;6248;49.812;6.620;2023-08-06T07:39:06;0.40;;;0.40;;
12367;SDS011;6248;49.812;6.620;2023-08-06T07:41:34;0.52;;;0.32;;
12367;SDS011;6248;49.812;6.620;2023-08-06T07:44:02;0.60;;;0.60;;
12367;SDS011;6248;49.812;6.620;2023-08-06T07:46:29;0.30;;;0.30;;
12367;SDS011;6248;49.812;6.620;2023-08-06T07:48:56;0.30;;;0.30;;
12367;SDS011;6248;49.812;6.620;2023-08-06T07:51:24;0.25;;;0.25;;
12367;SDS011;6248;49.812;6.620;2023-08-06T07:53:51;0.25;;;0.20;;
12367;SDS011;6248;49.812;6.620;2023-08-06T07:56:18;0.10;;;0.10;;
12367;SDS011;6248;49.812;6.620;2023-08-06T07:58:46;1.20;;;0.20;;
12367;SDS011;6248;49.812;6.620;2023-08-06T08:01:13;0.68;;;0.30;;
12367;SDS011;6248;49.812;6.620;2023-08-06T08:03:41;0.30;;;0.13;;
12367;SDS011;6248;49.812;6.620;2023-08-06T08:06:08;0.35;;;0.22;;
12367;SDS011;6248;49.812;6.620;2023-08-06T08:08:35;2.13;;;0.30;;
12367;SDS011;6248;49.812;6.620;2023-08-06T08:11:03;0.30;;;0.30;;
12367;SDS011;6248;49.812;6.620;2023-08-06T08:13:31;0.30;;;0.30;;
12367;SDS011;6248;49.812;6.620;2023-08-06T08:16:00;0.20;;;0.20;;
12367;SDS011;6248;49.812;6.620;2023-08-06T08:18:28;0.43;;;0.40;;
12367;SDS011;6248;49.812;6.620;2023-08-06T08:20:56;0.38;;;0.38;;
12367;SDS011;6248;49.812;6.620;2023-08-06T08:23:23;0.30;;;0.30;;
12367;SDS011;6248;49.812;6.620;2023-08-06T08:25:51;0.57;;;0.50;;
12367;SDS011;6248;49.812;6.620;2023-08-06T08:28:18;0.47;;;0.47;;
12367;SDS011;6248;49.812;6.620;2023-08-06T08:30:45;0.43;;;0.43;;
12367;SDS011;6248;49.812;6.620;2023-08-06T08:33:14;0.50;;;0.50;;
12367;SDS011;6248;49.812;6.620;2023-08-06T08:35:41;0.73;;;0.40;;
12367;SDS011;6248;49.812;6.620;2023-08-06T08:38:08;0.73;;;0.40;;
12367;SDS011;6248;49.812;6.620;2023-08-06T08:40:35;0.95;;;0.60;;
12367;SDS011;6248;49.812;6.620;2023-08-06T08:43:05;0.50;;;0.50;;
12367;SDS011;6248;49.812;6.620;2023-08-06T08:45:32;0.70;;;0.60;;
12367;SDS011;6248;49.812;6.620;2023-08-06T08:48:01;0.52;;;0.52;;
12367;SDS011;6248;49.812;6.620;2023-08-06T08:50:29;0.77;;;0.70;;
12367;SDS011;6248;49.812;6.620;2023-08-06T08:52:57;0.40;;;0.40;;
12367;SDS011;6248;49.812;6.620;2023-08-06T08:55:24;0.60;;;0.50;;
12367;SDS011;6248;49.812;6.620;2023-08-06T08:57:51;0.98;;;0.50;;
12367;SDS011;6248;49.812;6.620;2023-08-06T09:00:18;1.55;;;0.50;;
12367;SDS011;6248;49.812;6.620;2023-08-06T09:02:46;0.50;;;0.50;;
12367;SDS011;6248;49.812;6.620;2023-08-06T09:05:13;0.95;;;0.70;;
12367;SDS011;6248;49.812;6.620;2023-08-06T09:07:42;2.10;;;0.77;;
12367;SDS011;6248;49.812;6.620;2023-08-06T09:10:10;0.80;;;0.80;;
12367;SDS011;6248;49.812;6.620;2023-08-06T09:12:38;0.85;;;0.85;;
12367;SDS011;6248;49.812;6.620;2023-08-06T09:15:06;1.77;;;0.80;;
12367;SDS011;6248;49.812;6.620;2023-08-06T09:17:33;0.70;;;0.70;;
12367;SDS011;6248;49.812;6.620;2023-08-06T09:20:08;0.70;;;0.70;;
12367;SDS011;6248;49.812;6.620;2023-08-06T09:22:35;0.73;;;0.73;;
12367;SDS011;6248;49.812;6.620;2023-08-06T09:25:04;2.90;;;1.08;;
12367;SDS011;6248;49.812;6.620;2023-08-06T09:27:34;1.65;;;1.10;;
12367;SDS011;6248;49.812;6.620;2023-08-06T09:30:02;1.13;;;1.05;;
12367;SDS011;6248;49.812;6.620;2023-08-06T09:32:35;0.80;;;0.80;;
12367;SDS011;6248;49.812;6.620;2023-08-06T09:35:13;2.20;;;1.10;;
12367;SDS011;6248;49.812;6.620;2023-08-06T09:37:42;1.05;;;0.95;;
12367;SDS011;6248;49.812;6.620;2023-08-06T09:42:53;1.20;;;1.10;;
12367;SDS011;6248;49.812;6.620;2023-08-06T09:45:20;1.38;;;0.82;;
12367;SDS011;6248;49.812;6.620;2023-08-06T09:47:48;1.30;;;0.80;;
12367;SDS011;6248;49.812;6.620;2023-08-06T09:50:16;1.30;;;1.20;;
12367;SDS011;6248;49.812;6.620;2023-08-06T09:52:43;1.20;;;1.10;;
12367;SDS011;6248;49.812;6.620;2023-08-06T09:55:10;1.20;;;1.10;;
12367;SDS011;6248;49.812;6.620;2023-08-06T09:57:38;1.73;;;1.10;;
12367;SDS011;6248;49.812;6.620;2023-08-06T10:00:08;1.25;;;1.15;;
12367;SDS011;6248;49.812;6.620;2023-08-06T10:02:36;1.83;;;1.08;;
12367;SDS011;6248;49.812;6.620;2023-08-06T10:05:04;1.45;;;1.23;;
12367;SDS011;6248;49.812;6.620;2023-08-06T10:07:31;2.60;;;1.38;;
12367;SDS011;6248;49.812;6.620;2023-08-06T10:09:59;2.08;;;1.40;;
12367;SDS011;6248;49.812;6.620;2023-08-06T10:12:27;2.42;;;1.60;;
12367;SDS011;6248;49.812;6.620;2023-08-06T10:14:55;1.30;;;1.20;;
12367;SDS011;6248;49.812;6.620;2023-08-06T10:17:24;1.90;;;1.10;;
12367;SDS011;6248;49.812;6.620;2023-08-06T10:19:52;1.73;;;1.52;;
12367;SDS011;6248;49.812;6.620;2023-08-06T10:22:19;1.65;;;1.30;;
12367;SDS011;6248;49.812;6.620;2023-08-06T10:24:48;1.38;;;1.27;;
12367;SDS011;6248;49.812;6.620;2023-08-06T10:27:19;2.63;;;1.67;;
12367;SDS011;6248;49.812;6.620;2023-08-06T10:29:46;1.30;;;1.20;;
12367;SDS011;6248;49.812;6.620;2023-08-06T10:32:14;1.77;;;1.33;;
12367;SDS011;6248;49.812;6.620;2023-08-06T10:34:59;1.98;;;1.40;;
12367;SDS011;6248;49.812;6.620;2023-08-06T10:37:34;1.42;;;1.20;;
12367;SDS011;6248;49.812;6.620;2023-08-06T10:40:02;0.98;;;0.98;;
12367;SDS011;6248;49.812;6.620;2023-08-06T10:42:29;1.40;;;0.98;;
12367;SDS011;6248;49.812;6.620;2023-08-06T10:45:12;2.05;;;1.00;;
12367;SDS011;6248;49.812;6.620;2023-08-06T10:47:41;1.15;;;1.08;;
12367;SDS011;6248;49.812;6.620;2023-08-06T10:52:38;1.10;;;1.00;;
12367;SDS011;6248;49.812;6.620;2023-08-06T10:55:06;1.20;;;0.90;;
12367;SDS011;6248;49.812;6.620;2023-08-06T10:57:34;1.42;;;0.80;;
12367;SDS011;6248;49.812;6.620;2023-08-06T11:00:01;1.75;;;0.90;;
12367;SDS011;6248;49.812;6.620;2023-08-06T11:02:28;2.08;;;1.20;;
12367;SDS011;6248;49.812;6.620;2023-08-06T11:05:04;1.40;;;0.80;;
12367;SDS011;6248;49.812;6.620;2023-08-06T11:07:31;0.80;;;0.80;;
12367;SDS011;6248;49.812;6.620;2023-08-06T11:10:04;0.85;;;0.70;;
12367;SDS011;6248;49.812;6.620;2023-08-06T11:12:31;0.63;;;0.63;;
12367;SDS011;6248;49.812;6.620;2023-08-06T11:14:58;0.73;;;0.73;;
12367;SDS011;6248;49.812;6.620;2023-08-06T11:17:26;1.55;;;0.70;;
12367;SDS011;6248;49.812;6.620;2023-08-06T11:19:53;0.68;;;0.68;;
12367;SDS011;6248;49.812;6.620;2023-08-06T11:22:21;0.75;;;0.68;;
12367;SDS011;6248;49.812;6.620;2023-08-06T11:24:48;0.60;;;0.60;;
12367;SDS011;6248;49.812;6.620;2023-08-06T11:27:17;1.00;;;0.70;;
12367;SDS011;6248;49.812;6.620;2023-08-06T11:29:44;2.60;;;0.80;;
12367;SDS011;6248;49.812;6.620;2023-08-06T11:32:11;1.73;;;0.70;;
12367;SDS011;6248;49.812;6.620;2023-08-06T11:34:39;1.98;;;0.90;;
12367;SDS011;6248;49.812;6.620;2023-08-06T11:37:06;1.00;;;0.80;;
12367;SDS011;6248;49.812;6.620;2023-08-06T11:39:35;1.13;;;0.70;;
12367;SDS011;6248;49.812;6.620;2023-08-06T11:42:03;1.45;;;0.75;;
12367;SDS011;6248;49.812;6.620;2023-08-06T11:44:33;0.93;;;0.75;;
12367;SDS011;6248;49.812;6.620;2023-08-06T11:47:01;1.98;;;0.95;;
12367;SDS011;6248;49.812;6.620;2023-08-06T11:49:37;1.60;;;0.88;;
12367;SDS011;6248;49.812;6.620;2023-08-06T11:52:07;0.80;;;0.75;;
12367;SDS011;6248;49.812;6.620;2023-08-06T11:54:34;0.60;;;0.60;;
12367;SDS011;6248;49.812;6.620;2023-08-06T11:57:02;1.65;;;0.88;;
12367;SDS011;6248;49.812;6.620;2023-08-06T11:59:29;1.35;;;0.80;;
12367;SDS011;6248;49.812;6.620;2023-08-06T12:01:58;2.35;;;0.88;;
12367;SDS011;6248;49.812;6.620;2023-08-06T12:04:27;3.22;;;0.80;;
12367;SDS011;6248;49.812;6.620;2023-08-06T12:06:54;1.98;;;0.70;;
12367;SDS011;6248;49.812;6.620;2023-08-06T12:09:21;4.32;;;0.90;;
12367;SDS011;6248;49.812;6.620;2023-08-06T12:11:48;1.25;;;0.98;;
12367;SDS011;6248;49.812;6.620;2023-08-06T12:14:15;0.60;;;0.55;;
12367;SDS011;6248;49.812;6.620;2023-08-06T12:16:43;0.80;;;0.63;;
12367;SDS011;6248;49.812;6.620;2023-08-06T12:19:11;0.60;;;0.60;;
12367;SDS011;6248;49.812;6.620;2023-08-06T12:21:38;1.65;;;0.65;;
12367;SDS011;6248;49.812;6.620;2023-08-06T12:24:05;1.52;;;0.80;;
12367;SDS011;6248;49.812;6.620;2023-08-06T12:26:33;3.00;;;0.80;;
12367;SDS011;6248;49.812;6.620;2023-08-06T12:29:00;0.85;;;0.68;;
12367;SDS011;6248;49.812;6.620;2023-08-06T12:31:27;1.25;;;0.70;;
12367;SDS011;6248;49.812;6.620;2023-08-06T12:33:54;1.48;;;0.80;;
12367;SDS011;6248;49.812;6.620;2023-08-06T12:36:22;0.68;;;0.60;;
12367;SDS011;6248;49.812;6.620;2023-08-06T12:38:50;0.93;;;0.70;;
12367;SDS011;6248;49.812;6.620;2023-08-06T12:41:17;1.00;;;0.55;;
12367;SDS011;6248;49.812;6.620;2023-08-06T12:43:44;1.10;;;0.65;;
12367;SDS011;6248;49.812;6.620;2023-08-06T12:46:11;1.88;;;0.80;;
12367;SDS011;6248;49.812;6.620;2023-08-06T12:48:38;0.68;;;0.60;;
12367;SDS011;6248;49.812;6.620;2023-08-06T12:51:05;0.80;;;0.57;;
12367;SDS011;6248;49.812;6.620;2023-08-06T12:53:34;0.90;;;0.80;;
12367;SDS011;6248;49.812;6.620;2023-08-06T12:56:01;1.35;;;0.50;;
12367;SDS011;6248;49.812;6.620;2023-08-06T12:58:29;0.75;;;0.70;;
12367;SDS011;6248;49.812;6.620;2023-08-06T13:00:56;0.73;;;0.50;;
12367;SDS011;6248;49.812;6.620;2023-08-06T13:03:23;0.80;;;0.60;;
12367;SDS011;6248;49.812;6.620;2023-08-06T13:05:51;0.60;;;0.60;;
12367;SDS011;6248;49.812;6.620;2023-08-06T13:08:18;0.47;;;0.47;;
12367;SDS011;6248;49.812;6.620;2023-08-06T13:10:46;0.70;;;0.70;;
12367;SDS011;6248;49.812;6.620;2023-08-06T13:13:14;0.75;;;0.40;;
12367;SDS011;6248;49.812;6.620;2023-08-06T13:15:41;3.00;;;0.60;;
12367;SDS011;6248;49.812;6.620;2023-08-06T13:18:08;0.40;;;0.40;;
12367;SDS011;6248;49.812;6.620;2023-08-06T13:20:37;0.50;;;0.50;;
12367;SDS011;6248;49.812;6.620;2023-08-06T13:23:05;0.80;;;0.60;;
12367;SDS011;6248;49.812;6.620;2023-08-06T13:25:33;0.88;;;0.60;;
12367;SDS011;6248;49.812;6.620;2023-08-06T13:28:03;3.92;;;0.70;;
12367;SDS011;6248;49.812;6.620;2023-08-06T13:30:30;0.93;;;0.52;;
12367;SDS011;6248;49.812;6.620;2023-08-06T13:32:57;0.50;;;0.50;;
12367;SDS011;6248;49.812;6.620;2023-08-06T13:35:25;0.52;;;0.52;;
12367;SDS011;6248;49.812;6.620;2023-08-06T13:37:52;1.25;;;0.68;;
12367;SDS011;6248;49.812;6.620;2023-08-06T13:40:20;0.93;;;0.73;;
12367;SDS011;6248;49.812;6.620;2023-08-06T13:42:47;1.42;;;0.60;;
12367;SDS011;6248;49.812;6.620;2023-08-06T13:45:15;1.10;;;0.60;;
12367;SDS011;6248;49.812;6.620;2023-08-06T13:47:43;1.98;;;0.80;;
12367;SDS011;6248;49.812;6.620;2023-08-06T13:50:10;0.60;;;0.60;;
12367;SDS011;6248;49.812;6.620;2023-08-06T13:52:37;0.70;;;0.68;;
12367;SDS011;6248;49.812;6.620;2023-08-06T13:55:04;0.70;;;0.70;;
12367;SDS011;6248;49.812;6.620;2023-08-06T13:57:32;0.80;;;0.80;;
12367;SDS011;6248;49.812;6.620;2023-08-06T13:59:59;0.70;;;0.70;;
12367;SDS011;6248;49.812;6.620;2023-08-06T14:02:27;0.80;;;0.63;;
12367;SDS011;6248;49.812;6.620;2023-08-06T14:04:55;0.88;;;0.68;;
12367;SDS011;6248;49.812;6.620;2023-08-06T14:07:22;0.70;;;0.63;;
12367;SDS011;6248;49.812;6.620;2023-08-06T14:09:49;1.75;;;0.80;;
12367;SDS011;6248;49.812;6.620;2023-08-06T14:12:16;0.75;;;0.73;;
12367;SDS011;6248;49.812;6.620;2023-08-06T14:14:43;1.45;;;0.90;;
12367;SDS011;6248;49.812;6.620;2023-08-06T14:17:11;0.77;;;0.77;;
12367;SDS011;6248;49.812;6.620;2023-08-06T14:19:39;0.90;;;0.77;;
12367;SDS011;6248;49.812;6.620;2023-08-06T14:22:06;1.20;;;0.98;;
12367;SDS011;6248;49.812;6.620;2023-08-06T14:24:33;1.42;;;0.85;;
12367;SDS011;6248;49.812;6.620;2023-08-06T14:27:01;0.90;;;0.80;;
12367;SDS011;6248;49.812;6.620;2023-08-06T14:29:29;1.13;;;1.00;;
12367;SDS011;6248;49.812;6.620;2023-08-06T14:31:56;0.95;;;0.82;;
12367;SDS011;6248;49.812;6.620;2023-08-06T14:34:23;2.13;;;1.17;;
12367;SDS011;6248;49.812;6.620;2023-08-06T14:36:52;2.10;;;1.98;;
12367;SDS011;6248;49.812;6.620;2023-08-06T14:39:19;1.98;;;1.30;;
12367;SDS011;6248;49.812;6.620;2023-08-06T14:41:46;3.78;;;1.20;;
12367;SDS011;6248;49.812;6.620;2023-08-06T14:44:13;1.33;;;0.90;;
12367;SDS011;6248;49.812;6.620;2023-08-06T14:46:40;1.88;;;1.10;;
12367;SDS011;6248;49.812;6.620;2023-08-06T14:49:07;2.55;;;0.95;;
12367;SDS011;6248;49.812;6.620;2023-08-06T14:51:35;1.77;;;1.10;;
12367;SDS011;6248;49.812;6.620;2023-08-06T14:54:05;1.25;;;1.00;;
12367;SDS011;6248;49.812;6.620;2023-08-06T14:56:32;1.45;;;0.90;;
12367;SDS011;6248;49.812;6.620;2023-08-06T14:58:59;2.13;;;0.98;;
12367;SDS011;6248;49.812;6.620;2023-08-06T15:01:26;1.73;;;1.10;;
12367;SDS011;6248;49.812;6.620;2023-08-06T15:03:55;1.23;;;0.77;;
12367;SDS011;6248;49.812;6.620;2023-08-06T15:06:22;1.20;;;0.90;;
12367;SDS011;6248;49.812;6.620;2023-08-06T15:08:49;1.65;;;0.95;;